Time;durP1;ratioP1;P1;durP2;ratioP2;P2;SDS_P1;SDS_P2;PMS_P1;PMS_P2;Temp;Humidity;BMP_temperature;BMP_pressure;BME280_temperature;BME280_humidity;BME280_pressure;Samples;Min_cycle;Max_cycle;Signal;HPM_P1;HPM_P2
2021/08/20 00:00:27;;;;;;;3.30;2.00;;;18.70;1.30;;;;;;5093148;28;20048;-73
2021/08/20 00:03:16;;;;;;;3.10;1.98;;;18.70;2.20;;;;;;5098720;28;20160;-73
2021/08/20 00:06:06;;;;;;;3.40;2.05;;;18.70;2.40;;;;;;5093503;28;20218;-74
2021/08/20 00:08:54;;;;;;;3.00;2.00;;;18.50;4.30;;;;;;5094706;28;20052;-74
2021/08/20 00:11:42;;;;;;;2.70;2.22;;;18.40;6.90;;;;;;5102131;28;20134;-75
2021/08/20 00:14:31;;;;;;;3.30;1.83;;;18.30;8.00;;;;;;5096878;28;20047;-73
2021/08/20 00:17:19;;;;;;;3.15;1.90;;;18.20;8.80;;;;;;5092949;28;20039;-73
2021/08/20 00:20:09;;;;;;;3.15;2.17;;;18.10;9.10;;;;;;5089368;28;20044;-75
2021/08/20 00:22:59;;;;;;;2.35;2.00;;;18.30;9.10;;;;;;5087735;27;20426;-73
2021/08/20 00:25:47;;;;;;;4.40;2.30;;;18.30;8.60;;;;;;5097981;28;20058;-73
2021/08/20 00:28:35;;;;;;;4.05;2.40;;;18.20;8.60;;;;;;5089345;27;20047;-73
2021/08/20 00:31:24;;;;;;;3.75;2.42;;;18.30;8.90;;;;;;5095097;28;20148;-74
2021/08/20 00:34:13;;;;;;;4.55;2.30;;;18.40;8.60;;;;;;5104956;27;20048;-74
2021/08/20 00:37:02;;;;;;;3.65;2.60;;;18.40;8.50;;;;;;5079111;28;20513;-74
2021/08/20 00:39:51;;;;;;;4.20;2.40;;;18.20;8.90;;;;;;5090533;28;20054;-74
2021/08/20 00:42:40;;;;;;;4.32;2.60;;;18.20;9.20;;;;;;5095085;28;20109;-74
2021/08/20 00:45:28;;;;;;;4.90;2.40;;;18.30;8.50;;;;;;5096542;28;20409;-74
2021/08/20 00:48:17;;;;;;;4.43;2.42;;;18.30;8.50;;;;;;5094858;28;20134;-74
2021/08/20 00:51:09;;;;;;;4.05;2.22;;;18.10;9.60;;;;;;5091973;28;20620;-73
2021/08/20 00:53:59;;;;;;;4.15;2.30;;;18.10;9.60;;;;;;5098468;28;20226;-74
2021/08/20 00:56:50;;;;;;;3.80;1.92;;;18.10;9.60;;;;;;5095477;28;20056;-74
2021/08/20 00:59:39;;;;;;;3.05;2.08;;;18.20;9.20;;;;;;5081788;28;20051;-74
2021/08/20 01:02:30;;;;;;;4.32;2.20;;;18.10;10.00;;;;;;5097733;28;20504;-73
2021/08/20 01:05:19;;;;;;;2.30;1.73;;;18.10;12.10;;;;;;5084415;28;20051;-73
2021/08/20 01:08:08;;;;;;;4.80;2.17;;;18.10;12.80;;;;;;5102722;28;20044;-74
2021/08/20 01:10:58;;;;;;;10.40;2.40;;;18.00;12.30;;;;;;5107967;28;20055;-74
2021/08/20 01:13:48;;;;;;;5.25;2.40;;;18.00;11.70;;;;;;5079393;28;20139;-73
2021/08/20 01:16:37;;;;;;;4.18;2.50;;;18.10;12.30;;;;;;5079570;28;20036;-73
2021/08/20 01:19:25;;;;;;;4.15;2.78;;;18.00;11.00;;;;;;5092301;28;20143;-73
2021/08/20 01:22:15;;;;;;;3.80;2.38;;;18.10;11.10;;;;;;5080685;28;20051;-74
2021/08/20 01:25:08;;;;;;;4.05;2.70;;;18.10;11.00;;;;;;5098208;28;20195;-73
2021/08/20 01:28:06;;;;;;;3.17;2.35;;;18.20;10.50;;;;;;5102606;28;20451;-74
2021/08/20 01:31:00;;;;;;;3.10;2.35;;;18.10;10.30;;;;;;5078050;28;20530;-74
2021/08/20 01:33:50;;;;;;;5.23;2.77;;;18.10;11.00;;;;;;5083579;28;20070;-73
2021/08/20 01:36:38;;;;;;;4.70;2.47;;;18.00;11.90;;;;;;5103277;28;20529;-73
2021/08/20 01:39:27;;;;;;;4.88;2.53;;;17.90;12.60;;;;;;5085574;28;20055;-73
2021/08/20 01:42:19;;;;;;;3.13;2.35;;;18.00;12.60;;;;;;5081467;28;20117;-74
2021/08/20 01:45:08;;;;;;;3.55;2.30;;;18.10;13.00;;;;;;5081340;28;20125;-73
2021/08/20 01:48:01;;;;;;;3.85;2.35;;;18.00;12.70;;;;;;5097347;28;20047;-73
2021/08/20 01:50:49;;;;;;;4.32;2.13;;;17.90;13.20;;;;;;5086314;27;20039;-74
2021/08/20 01:53:37;;;;;;;3.90;2.17;;;17.90;14.70;;;;;;5098352;27;20040;-74
2021/08/20 01:56:27;;;;;;;3.45;2.50;;;17.80;15.60;;;;;;5081222;28;20063;-73
2021/08/20 01:59:17;;;;;;;3.22;2.22;;;17.80;14.00;;;;;;5093953;28;20051;-73
2021/08/20 02:02:06;;;;;;;3.33;2.40;;;17.80;14.30;;;;;;5086442;28;20056;-73
2021/08/20 02:04:54;;;;;;;3.78;2.30;;;17.90;14.30;;;;;;5099488;28;20173;-74
2021/08/20 02:07:44;;;;;;;3.25;2.20;;;17.80;14.50;;;;;;5096642;27;20048;-74
2021/08/20 02:10:36;;;;;;;5.30;2.53;;;17.80;14.90;;;;;;5076867;28;20051;-73
2021/08/20 02:13:25;;;;;;;4.38;2.58;;;17.80;15.00;;;;;;5089850;28;20047;-73
2021/08/20 02:16:15;;;;;;;4.47;2.72;;;17.80;15.20;;;;;;5106230;27;20055;-74
2021/08/20 02:19:04;;;;;;;5.30;2.47;;;17.80;14.70;;;;;;5097779;27;20077;-73
2021/08/20 02:21:52;;;;;;;4.72;2.50;;;17.80;14.80;;;;;;5113475;27;20605;-74
2021/08/20 02:24:46;;;;;;;5.20;2.45;;;17.80;14.50;;;;;;5089149;28;20036;-74
2021/08/20 02:27:35;;;;;;;3.25;1.98;;;17.90;14.70;;;;;;5091153;27;20055;-73
2021/08/20 02:30:25;;;;;;;3.10;2.42;;;17.80;15.50;;;;;;5080959;28;20039;-73
2021/08/20 02:33:15;;;;;;;3.03;2.00;;;17.70;16.20;;;;;;5085980;28;20570;-73
2021/08/20 02:36:06;;;;;;;4.38;2.40;;;17.70;16.60;;;;;;5080092;27;20046;-73
2021/08/20 02:38:55;;;;;;;4.93;2.42;;;17.70;17.00;;;;;;5080801;28;20066;-73
2021/08/20 02:41:43;;;;;;;4.75;2.50;;;17.70;17.90;;;;;;5080264;28;20105;-73
2021/08/20 02:44:31;;;;;;;3.97;2.47;;;17.70;18.10;;;;;;5100082;28;20048;-73
2021/08/20 02:47:20;;;;;;;4.55;2.40;;;17.70;18.30;;;;;;5093519;28;20422;-73
2021/08/20 02:50:11;;;;;;;6.15;2.20;;;17.60;18.90;;;;;;5082501;28;20048;-73
2021/08/20 02:52:59;;;;;;;4.70;2.17;;;17.70;19.10;;;;;;5110313;27;20046;-73
2021/08/20 02:55:51;;;;;;;2.85;1.95;;;17.70;19.10;;;;;;5098107;28;20434;-73
2021/08/20 02:58:42;;;;;;;3.25;2.60;;;17.70;19.80;;;;;;5075536;27;20040;-73
2021/08/20 03:01:31;;;;;;;3.83;2.20;;;17.60;19.70;;;;;;5083297;28;20047;-73
2021/08/20 03:04:25;;;;;;;3.93;2.37;;;17.60;20.20;;;;;;5084531;28;20467;-73
2021/08/20 03:07:15;;;;;;;4.47;2.53;;;17.60;20.20;;;;;;5079227;28;20060;-74
2021/08/20 03:10:04;;;;;;;3.78;2.72;;;17.70;20.30;;;;;;5095325;28;20403;-74
2021/08/20 03:12:54;;;;;;;3.55;2.30;;;17.70;20.30;;;;;;5083402;28;20052;-74
2021/08/20 03:15:43;;;;;;;3.95;2.88;;;17.60;20.20;;;;;;5081026;28;20055;-73
2021/08/20 03:18:32;;;;;;;3.35;2.60;;;17.60;19.50;;;;;;5094432;28;20559;-73
2021/08/20 03:21:24;;;;;;;3.13;2.17;;;17.60;20.20;;;;;;5081365;28;20940;-73
2021/08/20 03:24:08;;;;;;;3.33;2.67;;;17.60;20.80;;;;;;5116398;27;20144;-74
2021/08/20 03:26:50;;;;;;;5.18;2.40;;;17.70;20.30;;;;;;5137661;27;20124;-72
2021/08/20 03:29:31;;;;;;;4.13;2.22;;;17.70;20.30;;;;;;5130408;27;20121;-73
2021/08/20 03:32:49;;;;;;;4.20;2.50;;;17.70;20.30;;;;;;5114854;27;20117;-72
2021/08/20 03:35:29;;;;;;;6.82;2.70;;;17.80;20.40;;;;;;5144183;27;20587;-73
2021/08/20 03:38:10;;;;;;;3.75;2.17;;;17.70;20.30;;;;;;5160310;27;20112;-74
2021/08/20 03:40:50;;;;;;;3.08;2.20;;;17.80;20.30;;;;;;5146484;27;20120;-73
2021/08/20 03:43:36;;;;;;;3.50;2.43;;;17.70;19.10;;;;;;5167213;27;20382;-73
2021/08/20 03:46:24;;;;;;;4.15;2.35;;;17.90;17.50;;;;;;5159898;27;20115;-75
2021/08/20 03:49:04;;;;;;;2.75;2.10;;;17.80;17.70;;;;;;5150564;27;20477;-73
2021/08/20 03:51:44;;;;;;;3.15;2.67;;;17.80;17.20;;;;;;5112028;27;20124;-73
2021/08/20 03:54:36;;;;;;;3.92;2.28;;;17.80;18.10;;;;;;5111073;27;20120;-74
2021/08/20 03:57:16;;;;;;;5.70;2.28;;;17.70;18.10;;;;;;5090550;27;20117;-74
2021/08/20 03:59:57;;;;;;;4.93;2.67;;;17.70;18.20;;;;;;5109951;27;20125;-74
2021/08/20 04:02:37;;;;;;;9.80;2.58;;;17.70;19.50;;;;;;5137960;27;20115;-74
2021/08/20 04:05:20;;;;;;;3.13;2.42;;;17.70;18.80;;;;;;5154586;27;20119;-74
2021/08/20 04:08:05;;;;;;;3.60;2.60;;;17.60;18.10;;;;;;5143119;27;20405;-74
2021/08/20 04:11:02;;;;;;;5.30;2.65;;;17.70;18.50;;;;;;5154889;27;20117;-74
2021/08/20 04:13:52;;;;;;;5.68;2.70;;;17.70;18.50;;;;;;5161903;27;20123;-74
2021/08/20 04:16:32;;;;;;;5.53;2.35;;;17.80;18.20;;;;;;5138068;27;20116;-72
2021/08/20 04:19:11;;;;;;;3.47;2.45;;;17.80;18.10;;;;;;5179330;27;20117;-74
2021/08/20 04:21:51;;;;;;;3.55;2.28;;;17.70;18.30;;;;;;5123530;27;20120;-74
2021/08/20 04:24:31;;;;;;;3.50;2.10;;;17.70;19.80;;;;;;5170357;27;20110;-73
2021/08/20 04:27:23;;;;;;;4.68;2.58;;;17.80;19.80;;;;;;5099600;27;20121;-73
2021/08/20 04:30:14;;;;;;;20.50;3.05;;;17.70;20.30;;;;;;5126299;27;20119;-74
2021/08/20 04:33:05;;;;;;;6.10;2.50;;;17.80;20.40;;;;;;5109776;27;20133;-75
2021/08/20 04:36:05;;;;;;;4.10;2.50;;;17.70;20.30;;;;;;5108115;27;20117;-74
2021/08/20 04:39:19;;;;;;;5.35;2.72;;;17.60;20.20;;;;;;5106535;27;20120;-73
2021/08/20 04:42:16;;;;;;;3.55;2.42;;;17.60;20.20;;;;;;5109465;27;20117;-74
2021/08/20 04:45:24;;;;;;;5.45;2.40;;;17.70;20.30;;;;;;5108414;27;20278;-74
2021/08/20 04:48:15;;;;;;;5.75;2.95;;;17.70;20.30;;;;;;5126023;27;20128;-73
2021/08/20 04:51:17;;;;;;;3.97;2.40;;;17.70;20.30;;;;;;5106435;27;20125;-74
2021/08/20 04:54:05;;;;;;;4.80;2.50;;;17.80;20.40;;;;;;5129696;27;20431;-73
2021/08/20 04:56:56;;;;;;;2.83;2.28;;;17.80;20.40;;;;;;5134432;27;20119;-74
2021/08/20 04:59:36;;;;;;;6.53;2.65;;;17.70;20.80;;;;;;5137227;27;20117;-73
2021/08/20 05:02:15;;;;;;;3.60;2.30;;;17.70;20.30;;;;;;5142715;27;20116;-74
2021/08/20 05:04:57;;;;;;;4.75;2.55;;;17.80;19.10;;;;;;5145808;27;20121;-73
2021/08/20 05:07:39;;;;;;;4.05;3.03;;;17.80;18.50;;;;;;5171602;27;20126;-73
2021/08/20 05:10:20;;;;;;;4.88;2.30;;;17.80;18.60;;;;;;5166147;27;20915;-73
2021/08/20 05:13:05;;;;;;;4.00;2.40;;;17.80;17.80;;;;;;5160750;27;20103;-74
2021/08/20 05:15:44;;;;;;;4.93;2.50;;;17.90;17.00;;;;;;5133545;27;20474;-74
2021/08/20 05:18:29;;;;;;;3.03;2.40;;;18.00;15.80;;;;;;5114110;27;20120;-73
2021/08/20 05:21:08;;;;;;;3.15;2.00;;;18.00;15.80;;;;;;5108021;27;20476;-73
2021/08/20 05:23:48;;;;;;;3.20;2.17;;;18.00;16.40;;;;;;5152611;27;20115;-73
2021/08/20 05:26:30;;;;;;;5.57;2.40;;;17.90;17.40;;;;;;5128258;27;20203;-73
2021/08/20 05:29:09;;;;;;;4.22;2.38;;;18.00;15.80;;;;;;5136991;27;20122;-73
2021/08/20 05:31:52;;;;;;;5.93;2.60;;;18.00;15.70;;;;;;5146649;27;20123;-73
2021/08/20 05:34:32;;;;;;;2.45;2.08;;;18.10;15.30;;;;;;5166284;27;20127;-74
2021/08/20 05:37:12;;;;;;;5.70;2.28;;;18.10;15.00;;;;;;5146771;27;20126;-73
2021/08/20 05:39:52;;;;;;;4.60;2.67;;;18.30;14.50;;;;;;5105123;27;20121;-74
2021/08/20 05:42:32;;;;;;;5.18;2.40;;;18.40;12.50;;;;;;5164683;27;20111;-74
2021/08/20 05:45:14;;;;;;;3.67;2.38;;;18.40;13.50;;;;;;5124163;27;20123;-73
2021/08/20 05:47:55;;;;;;;6.50;2.40;;;18.50;12.80;;;;;;5141846;27;20205;-74
2021/08/20 05:50:35;;;;;;;5.68;2.60;;;18.50;13.00;;;;;;5137072;27;20113;-72
2021/08/20 05:53:14;;;;;;;4.78;2.17;;;18.50;13.60;;;;;;5160289;27;20486;-74
2021/08/20 05:55:55;;;;;;;5.35;2.45;;;18.60;12.60;;;;;;5137196;27;20117;-73
2021/08/20 05:58:35;;;;;;;8.05;3.28;;;18.70;12.10;;;;;;5155273;27;20118;-72
2021/08/20 06:01:15;;;;;;;8.80;3.03;;;18.80;11.70;;;;;;5157071;27;20118;-74
2021/08/20 06:03:55;;;;;;;8.40;3.42;;;18.80;11.10;;;;;;5175126;27;20601;-73
2021/08/20 06:06:43;;;;;;;8.75;5.90;;;18.90;11.00;;;;;;5098090;27;20129;-73
2021/08/20 06:09:24;;;;;;;5.07;2.58;;;18.80;9.80;;;;;;5117499;27;20206;-74
2021/08/20 06:12:05;;;;;;;5.60;2.80;;;18.90;8.80;;;;;;5131185;27;20124;-74
2021/08/20 06:14:44;;;;;;;5.00;2.83;;;19.00;7.70;;;;;;5141064;27;20578;-74
2021/08/20 06:17:24;;;;;;;4.93;2.75;;;18.90;9.30;;;;;;5146526;27;20118;-74
2021/08/20 06:20:05;;;;;;;3.38;2.53;;;18.70;8.60;;;;;;5150007;27;20616;-74
2021/08/20 06:22:43;;;;;;;6.10;3.17;;;18.70;9.20;;;;;;5149420;27;20119;-73
2021/08/20 06:25:25;;;;;;;5.32;3.20;;;18.60;9.10;;;;;;5083517;27;20201;-73
2021/08/20 06:28:07;;;;;;;3.50;2.63;;;18.60;9.70;;;;;;5173764;27;20623;-74
2021/08/20 06:30:47;;;;;;;4.13;2.78;;;18.80;9.00;;;;;;5099957;27;20125;-73
2021/08/20 06:33:28;;;;;;;4.15;2.70;;;19.00;8.70;;;;;;5108975;27;20129;-72
2021/08/20 06:36:07;;;;;;;4.63;2.90;;;18.70;10.00;;;;;;5116110;27;20113;-72
2021/08/20 06:38:47;;;;;;;5.38;2.80;;;19.10;9.20;;;;;;5113633;27;20568;-74
2021/08/20 06:41:27;;;;;;;4.53;3.03;;;18.90;10.00;;;;;;5150385;27;20121;-73
2021/08/20 06:44:09;;;;;;;5.82;3.50;;;18.80;10.10;;;;;;5081130;27;20206;-74
2021/08/20 06:46:48;;;;;;;5.15;3.13;;;18.80;10.30;;;;;;5136685;27;20125;-72
2021/08/20 06:49:30;;;;;;;6.07;3.35;;;18.60;11.20;;;;;;5172839;27;20198;-75
2021/08/20 06:52:11;;;;;;;4.90;3.22;;;19.10;10.30;;;;;;5106676;27;20127;-73
2021/08/20 06:54:50;;;;;;;8.38;3.78;;;18.90;10.50;;;;;;5169170;27;20113;-73
2021/08/20 06:57:30;;;;;;;10.63;4.13;;;19.20;10.40;;;;;;5101599;27;20113;-73
2021/08/20 07:00:11;;;;;;;7.70;4.25;;;19.30;9.80;;;;;;5113017;27;20133;-74
2021/08/20 07:02:50;;;;;;;6.03;4.15;;;19.50;8.90;;;;;;5143922;27;20603;-74
2021/08/20 07:05:31;;;;;;;7.68;3.72;;;19.70;7.70;;;;;;5144849;27;20129;-75
2021/08/20 07:08:10;;;;;;;6.43;4.43;;;19.60;8.40;;;;;;5149430;27;20407;-75
2021/08/20 07:10:49;;;;;;;7.90;4.20;;;19.70;6.90;;;;;;5157738;27;22270;-74
2021/08/20 07:13:29;;;;;;;6.50;4.18;;;19.20;10.30;;;;;;5173237;27;20109;-74
2021/08/20 07:16:09;;;;;;;7.03;4.95;;;19.70;9.70;;;;;;5101364;27;20118;-74
2021/08/20 07:18:49;;;;;;;7.32;4.85;;;19.40;9.70;;;;;;5166664;27;20115;-74
2021/08/20 07:21:28;;;;;;;10.82;5.45;;;19.30;10.40;;;;;;5104953;27;20507;-73
2021/08/20 07:24:09;;;;;;;6.63;4.53;;;19.30;10.40;;;;;;5125721;27;20117;-73
2021/08/20 07:26:48;;;;;;;7.13;5.53;;;20.00;9.10;;;;;;5096099;27;20123;-73
2021/08/20 07:29:28;;;;;;;6.15;4.72;;;19.70;9.20;;;;;;5145145;27;20119;-74
2021/08/20 07:32:09;;;;;;;7.55;5.18;;;20.00;7.40;;;;;;5157273;27;20112;-74
2021/08/20 07:34:47;;;;;;;6.80;5.30;;;20.10;8.50;;;;;;5151756;27;20115;-73
2021/08/20 07:37:27;;;;;;;9.07;4.90;;;20.10;7.60;;;;;;5149420;27;20115;-73
2021/08/20 07:40:09;;;;;;;7.43;4.97;;;20.00;8.60;;;;;;5168390;27;20597;-73
2021/08/20 07:42:51;;;;;;;6.80;4.88;;;20.20;8.80;;;;;;5116672;27;20195;-73
2021/08/20 07:45:30;;;;;;;8.32;5.45;;;20.20;7.30;;;;;;5111553;27;20126;-74
2021/08/20 07:48:12;;;;;;;9.05;5.70;;;20.40;7.40;;;;;;5117184;27;20588;-74
2021/08/20 07:50:51;;;;;;;9.75;6.30;;;20.30;6.90;;;;;;5130798;27;20121;-74
2021/08/20 07:53:31;;;;;;;11.20;6.13;;;20.20;7.30;;;;;;5124503;27;20121;-72
2021/08/20 07:56:11;;;;;;;8.88;5.80;;;20.20;7.30;;;;;;5130174;27;20122;-74
2021/08/20 07:58:50;;;;;;;7.03;6.05;;;20.20;7.80;;;;;;5150177;27;20098;-74
2021/08/20 08:01:31;;;;;;;7.80;5.95;;;20.40;7.40;;;;;;5170024;27;20117;-73
2021/08/20 08:04:10;;;;;;;8.80;6.28;;;20.30;7.10;;;;;;5068535;27;20473;-72
2021/08/20 08:06:50;;;;;;;6.68;5.55;;;20.70;6.30;;;;;;5154850;27;20115;-73
2021/08/20 08:09:30;;;;;;;9.18;6.20;;;21.00;4.00;;;;;;5105029;27;20120;-73
2021/08/20 08:12:12;;;;;;;7.90;6.07;;;20.60;3.70;;;;;;5127290;27;20112;-75
2021/08/20 08:14:53;;;;;;;7.55;6.22;;;21.00;4.00;;;;;;5161525;27;20226;-73
2021/08/20 08:17:33;;;;;;;8.18;5.80;;;21.20;2.90;;;;;;5126765;27;20129;-73
2021/08/20 08:20:18;;;;;;;10.10;6.63;;;21.10;2.90;;;;;;5139232;27;20204;-72
2021/08/20 08:22:57;;;;;;;12.65;5.82;;;21.50;1.00;;;;;;5146749;27;20117;-74
2021/08/20 08:25:37;;;;;;;6.70;5.47;;;21.70;1.00;;;;;;5155616;27;20126;-74
2021/08/20 08:28:16;;;;;;;7.32;5.85;;;21.70;1.00;;;;;;5170785;27;20125;-74
2021/08/20 08:31:02;;;;;;;9.35;5.45;;;21.50;1.00;;;;;;5103981;27;20109;-74
2021/08/20 08:33:41;;;;;;;7.03;5.75;;;21.90;1.00;;;;;;5162098;27;20106;-73
2021/08/20 08:36:21;;;;;;;7.25;6.38;;;21.50;1.00;;;;;;5106005;27;20612;-75
2021/08/20 08:39:00;;;;;;;10.52;5.65;;;21.00;1.00;;;;;;5117183;27;20117;-75
2021/08/20 08:41:49;;;;;;;7.75;5.63;;;21.50;1.00;;;;;;5105691;28;20044;-75
2021/08/20 08:44:30;;;;;;;7.75;6.00;;;21.60;1.00;;;;;;5133430;27;20203;-75
2021/08/20 08:47:14;;;;;;;6.80;5.70;;;21.30;1.00;;;;;;5142844;27;20650;-74
2021/08/20 08:49:57;;;;;;;8.02;5.50;;;21.90;1.00;;;;;;5139519;27;20112;-73
2021/08/20 08:52:36;;;;;;;7.63;5.47;;;21.80;1.00;;;;;;5095595;27;20126;-75
2021/08/20 08:55:16;;;;;;;6.95;5.50;;;22.20;1.00;;;;;;5154350;27;20110;-75
2021/08/20 08:57:55;;;;;;;7.05;5.20;;;22.20;1.00;;;;;;5155835;27;20118;-73
2021/08/20 09:00:37;;;;;;;5.10;4.43;;;21.60;1.00;;;;;;5113244;27;20112;-74
2021/08/20 09:03:27;;;;;;;4.72;4.13;;;21.90;1.00;;;;;;5124983;27;20129;-74
2021/08/20 09:06:07;;;;;;;7.22;4.70;;;21.50;1.00;;;;;;5117374;27;20121;-75
2021/08/20 09:09:04;;;;;;;8.23;4.55;;;21.40;1.00;;;;;;5131213;27;20108;-75
2021/08/20 09:11:44;;;;;;;7.93;4.90;;;21.20;1.00;;;;;;5096292;27;20569;-73
2021/08/20 09:14:29;;;;;;;7.68;5.05;;;21.50;1.00;;;;;;5147291;27;20120;-74
2021/08/20 09:17:12;;;;;;;5.73;4.30;;;22.20;1.00;;;;;;5137755;27;20391;-75
2021/08/20 09:19:50;;;;;;;7.13;4.25;;;22.20;1.00;;;;;;5149550;27;20118;-74
2021/08/20 09:22:34;;;;;;;4.63;3.95;;;22.60;1.00;;;;;;5152538;27;20122;-75
2021/08/20 09:25:32;;;;;;;5.65;4.40;;;22.50;1.00;;;;;;5173804;27;20113;-77
2021/08/20 09:28:17;;;;;;;7.90;4.57;;;21.90;1.00;;;;;;5155756;27;20118;-74
2021/08/20 09:31:02;;;;;;;5.82;4.85;;;21.90;1.00;;;;;;5142809;27;20490;-73
2021/08/20 09:33:50;;;;;;;5.37;4.47;;;22.10;1.00;;;;;;5162304;27;20373;-74
2021/08/20 09:36:29;;;;;;;5.35;4.38;;;23.00;1.00;;;;;;5108768;27;20117;-74
2021/08/20 09:39:09;;;;;;;7.13;4.32;;;22.70;1.00;;;;;;5129496;27;20130;-74
2021/08/20 09:42:10;;;;;;;4.97;3.85;;;23.30;1.00;;;;;;5138419;27;20197;-73
2021/08/20 09:45:20;;;;;;;5.32;2.95;;;22.70;1.00;;;;;;5128882;27;20112;-74
2021/08/20 09:48:01;;;;;;;5.13;3.45;;;22.80;1.00;;;;;;5115693;27;20108;-74
2021/08/20 09:50:42;;;;;;;5.53;4.32;;;22.90;1.00;;;;;;5143320;27;20120;-73
2021/08/20 09:53:22;;;;;;;8.25;4.63;;;22.60;1.00;;;;;;5151584;27;20112;-74
2021/08/20 09:56:05;;;;;;;5.95;4.60;;;22.50;1.00;;;;;;5135880;27;20490;-74
2021/08/20 09:58:44;;;;;;;7.68;5.13;;;23.00;1.00;;;;;;5154441;27;20126;-74
2021/08/20 10:01:24;;;;;;;6.25;4.60;;;22.50;1.00;;;;;;5157826;27;20119;-75
2021/08/20 10:04:06;;;;;;;6.32;4.78;;;22.20;1.00;;;;;;5160211;27;20602;-74
2021/08/20 10:06:48;;;;;;;4.70;3.67;;;22.30;1.00;;;;;;5116253;27;20123;-74
2021/08/20 10:09:30;;;;;;;5.63;3.95;;;23.00;1.00;;;;;;5120892;27;20120;-73
2021/08/20 10:12:10;;;;;;;4.57;3.95;;;22.50;1.00;;;;;;5112495;27;20113;-73
2021/08/20 10:14:50;;;;;;;7.97;3.92;;;21.80;1.00;;;;;;5134671;27;20111;-74
2021/08/20 10:17:39;;;;;;;5.50;3.40;;;22.20;1.00;;;;;;5093146;28;20052;-73
2021/08/20 10:20:27;;;;;;;5.32;3.20;;;22.30;1.00;;;;;;5110700;27;20130;-74
2021/08/20 10:23:16;;;;;;;3.28;2.78;;;23.20;1.00;;;;;;5136884;27;20564;-76
2021/08/20 10:26:06;;;;;;;3.25;2.70;;;23.30;1.00;;;;;;5135178;27;20043;-74
2021/08/20 10:28:55;;;;;;;5.28;3.55;;;23.80;1.00;;;;;;5138250;27;20042;-75
2021/08/20 10:31:45;;;;;;;7.13;3.30;;;23.20;1.00;;;;;;5130331;27;20118;-74
2021/08/20 10:34:35;;;;;;;3.53;2.95;;;23.00;1.00;;;;;;5129399;27;21929;-74
2021/08/20 10:37:30;;;;;;;4.45;2.70;;;23.40;1.00;;;;;;5133222;27;20075;-74
2021/08/20 10:40:22;;;;;;;;;;;24.20;1.00;;;;;;5134469;27;20134;-74
2021/08/20 10:43:47;;;;;;;3.35;2.75;;;23.30;1.00;;;;;;5140391;27;19923;-74
2021/08/20 10:47:08;;;;;;;4.75;2.90;;;23.00;1.00;;;;;;5108330;27;20116;-72
2021/08/20 10:49:49;;;;;;;3.70;2.60;;;23.50;1.00;;;;;;5145724;27;20111;-75
2021/08/20 10:52:33;;;;;;;3.50;2.83;;;23.30;1.00;;;;;;5152006;27;20482;-72
2021/08/20 10:55:15;;;;;;;3.55;2.85;;;23.30;1.00;;;;;;5155371;27;20123;-73
2021/08/20 10:58:11;;;;;;;6.20;3.10;;;24.00;1.00;;;;;;5097679;28;20063;-74
2021/08/20 11:00:59;;;;;;;3.08;2.78;;;24.30;1.00;;;;;;5104171;27;20139;-74
2021/08/20 11:03:44;;;;;;;5.35;2.90;;;24.30;1.00;;;;;;5160279;27;20117;-75
2021/08/20 11:06:53;;;;;;;3.75;2.47;;;23.90;1.00;;;;;;5107315;27;20120;-74
2021/08/20 11:09:34;;;;;;;5.10;2.90;;;23.90;1.00;;;;;;5115261;27;20716;-74
2021/08/20 11:12:38;;;;;;;6.72;3.15;;;24.20;1.00;;;;;;5118770;27;20123;-74
2021/08/20 11:15:44;;;;;;;4.00;2.80;;;23.80;1.00;;;;;;5143700;27;20115;-73
2021/08/20 11:18:43;;;;;;;3.58;3.00;;;24.30;1.00;;;;;;5094983;27;20119;-73
2021/08/20 11:21:44;;;;;;;8.00;2.92;;;23.90;1.00;;;;;;5109574;27;20116;-73
2021/08/20 11:24:24;;;;;;;4.13;2.40;;;23.20;1.00;;;;;;5110566;27;20116;-73
2021/08/20 11:27:15;;;;;;;2.90;2.53;;;23.20;1.00;;;;;;5128447;27;20112;-73
2021/08/20 11:29:56;;;;;;;4.07;2.40;;;23.60;1.00;;;;;;5120639;27;20128;-72
2021/08/20 11:33:12;;;;;;;3.70;2.50;;;23.50;1.00;;;;;;5084504;28;20133;-74
2021/08/20 11:36:01;;;;;;;3.13;2.53;;;23.60;1.00;;;;;;5093989;28;20039;-74
2021/08/20 11:38:53;;;;;;;2.78;2.35;;;24.70;1.00;;;;;;5083502;28;20082;-74
2021/08/20 11:41:44;;;;;;;4.70;2.53;;;24.30;1.00;;;;;;5078607;28;20139;-74
2021/08/20 11:44:32;;;;;;;3.72;2.20;;;24.70;1.00;;;;;;5083301;28;20046;-74
2021/08/20 11:47:22;;;;;;;2.95;2.65;;;24.00;1.00;;;;;;5093402;28;20039;-74
2021/08/20 11:50:12;;;;;;;5.38;3.00;;;24.50;1.00;;;;;;5096026;28;20095;-74
2021/08/20 11:53:00;;;;;;;4.35;2.85;;;25.20;1.00;;;;;;5082165;28;20503;-74
2021/08/20 11:56:13;;;;;;;4.90;2.85;;;24.30;1.00;;;;;;5088842;28;20044;-74
2021/08/20 11:59:11;;;;;;;2.65;2.33;;;24.20;1.00;;;;;;5100513;28;20166;-74
2021/08/20 12:02:01;;;;;;;3.60;2.63;;;24.60;1.00;;;;;;5092819;28;20044;-74
2021/08/20 12:05:12;;;;;;;4.15;2.90;;;24.00;1.00;;;;;;5084404;28;20150;-73
2021/08/20 12:08:14;;;;;;;5.82;2.72;;;24.10;1.00;;;;;;5091865;28;20032;-74
2021/08/20 12:11:03;;;;;;;3.90;2.80;;;23.90;1.00;;;;;;5087199;28;20135;-75
2021/08/20 12:13:54;;;;;;;3.58;2.40;;;24.60;1.00;;;;;;5095929;28;20056;-74
2021/08/20 12:16:44;;;;;;;2.58;2.28;;;23.90;1.00;;;;;;5074718;28;20075;-75
2021/08/20 12:19:44;;;;;;;2.28;2.08;;;24.80;1.00;;;;;;5094603;28;20064;-73
2021/08/20 12:22:40;;;;;;;3.90;2.70;;;25.30;1.00;;;;;;5077235;28;20415;-75
2021/08/20 12:25:28;;;;;;;3.13;2.17;;;25.70;1.00;;;;;;5077906;28;20052;-74
2021/08/20 12:28:18;;;;;;;3.67;2.80;;;24.70;1.00;;;;;;5097359;28;20044;-74
2021/08/20 12:31:07;;;;;;;3.35;2.50;;;24.20;1.00;;;;;;5096629;28;20047;-74
2021/08/20 12:34:00;;;;;;;3.75;2.40;;;24.90;1.00;;;;;;5082443;28;20037;-75
2021/08/20 12:36:54;;;;;;;3.50;2.17;;;25.20;1.00;;;;;;5085793;28;20056;-74
2021/08/20 12:39:44;;;;;;;3.28;2.60;;;25.30;1.00;;;;;;5086672;28;20524;-74
2021/08/20 12:42:42;;;;;;;4.03;2.60;;;25.20;1.00;;;;;;5076719;28;20471;-74
2021/08/20 12:45:31;;;;;;;4.15;2.42;;;25.00;1.00;;;;;;5069456;28;20048;-74
2021/08/20 12:48:19;;;;;;;2.65;2.33;;;25.70;1.00;;;;;;5069296;28;20443;-73
2021/08/20 12:51:10;;;;;;;3.45;2.28;;;25.30;1.00;;;;;;5074990;28;20213;-73
2021/08/20 12:54:04;;;;;;;3.15;2.42;;;25.40;1.00;;;;;;5081660;28;20584;-75
2021/08/20 12:57:03;;;;;;;3.40;2.78;;;24.30;1.00;;;;;;5072390;28;20130;-74
2021/08/20 13:00:01;;;;;;;3.58;2.22;;;23.80;1.00;;;;;;5092150;28;20044;-73
2021/08/20 13:02:51;;;;;;;5.80;2.75;;;25.10;1.00;;;;;;5085362;28;20192;-75
2021/08/20 13:05:59;;;;;;;3.05;2.33;;;24.90;1.00;;;;;;5082285;28;20437;-73
2021/08/20 13:08:49;;;;;;;3.75;2.78;;;24.30;1.00;;;;;;5084009;28;20036;-74
2021/08/20 13:11:59;;;;;;;4.40;3.00;;;25.20;1.00;;;;;;5086126;28;20055;-75
2021/08/20 13:14:47;;;;;;;4.15;2.55;;;25.00;1.00;;;;;;5086105;28;20457;-76
2021/08/20 13:17:35;;;;;;;4.50;2.45;;;24.70;1.00;;;;;;5081650;28;20495;-74
2021/08/20 13:20:24;;;;;;;4.07;2.40;;;24.40;1.00;;;;;;5081781;28;20130;-74
2021/08/20 13:23:13;;;;;;;3.17;2.70;;;24.20;1.00;;;;;;5084766;28;20036;-75
2021/08/20 13:26:04;;;;;;;4.20;2.72;;;25.00;1.00;;;;;;5090278;28;20054;-75
2021/08/20 13:28:54;;;;;;;3.35;2.65;;;25.10;1.00;;;;;;5086575;28;20051;-76
2021/08/20 13:31:42;;;;;;;3.58;2.67;;;25.50;1.00;;;;;;5086765;28;20047;-74
2021/08/20 13:34:31;;;;;;;3.17;2.40;;;25.40;1.00;;;;;;5076952;28;20048;-75
2021/08/20 13:37:19;;;;;;;5.30;3.22;;;25.10;1.00;;;;;;5080256;28;20135;-75
2021/08/20 13:40:09;;;;;;;2.63;2.40;;;25.50;1.00;;;;;;5088425;28;20051;-75
2021/08/20 13:42:58;;;;;;;2.72;2.47;;;25.30;1.00;;;;;;5063091;28;20178;-74
2021/08/20 13:45:49;;;;;;;3.38;2.38;;;25.40;1.00;;;;;;5080263;28;20186;-74
2021/08/20 13:48:38;;;;;;;2.70;2.17;;;24.80;1.00;;;;;;5087286;28;20036;-75
2021/08/20 13:51:26;;;;;;;3.65;2.53;;;24.60;1.00;;;;;;5091032;28;20126;-74
2021/08/20 13:54:15;;;;;;;2.30;2.00;;;24.70;1.00;;;;;;5084167;28;20047;-76
2021/08/20 13:57:04;;;;;;;3.13;2.40;;;25.00;1.00;;;;;;5083685;28;20591;-76
2021/08/20 13:59:52;;;;;;;2.80;2.30;;;25.10;1.00;;;;;;5071139;28;20513;-75
2021/08/20 14:02:42;;;;;;;3.28;2.45;;;24.40;1.00;;;;;;5084051;28;20040;-75
2021/08/20 14:05:33;;;;;;;6.60;2.45;;;24.00;1.00;;;;;;5085036;28;20047;-74
2021/08/20 14:08:21;;;;;;;3.88;2.35;;;24.80;1.00;;;;;;5079122;28;20050;-74
2021/08/20 14:11:10;;;;;;;4.18;2.30;;;25.00;1.00;;;;;;5084788;28;20059;-75
2021/08/20 14:14:00;;;;;;;2.83;2.40;;;25.00;1.00;;;;;;5088936;28;20048;-75
2021/08/20 14:16:48;;;;;;;2.53;2.10;;;25.00;1.00;;;;;;5081259;28;20060;-76
2021/08/20 14:19:38;;;;;;;2.83;2.13;;;25.10;1.00;;;;;;5081457;28;20507;-75
2021/08/20 14:22:26;;;;;;;3.33;2.40;;;25.00;1.00;;;;;;5088960;28;20040;-75
2021/08/20 14:25:15;;;;;;;3.38;2.45;;;25.40;1.00;;;;;;5091019;28;20058;-77
2021/08/20 14:28:04;;;;;;;2.80;2.40;;;25.20;1.00;;;;;;5080964;28;20043;-75
2021/08/20 14:30:52;;;;;;;4.80;2.35;;;25.60;1.00;;;;;;5057523;28;20041;-75
2021/08/20 14:33:41;;;;;;;3.38;2.20;;;25.40;1.00;;;;;;5062482;28;20131;-75
2021/08/20 14:36:31;;;;;;;4.28;2.30;;;24.70;1.00;;;;;;5062280;28;20041;-75